Buoy 44845

sailwx.info

Track history (hours):
 
Tides and Currents Weather Stations Pressure Air Temp Water Temp Dewpoint Dewpoint Depression Visibility Wind Speed Wind Dir Waves Ship Positions

Drifting buoy 44845

Last reported at 2016-Dec-06 15:01 UTC. Time now 2016-Dec-06 16:04 UTC.
Position N 72°55' E 028°57'.

Date/timePositionNaut miles runAvg speedWind from/ knotsBaromVisibWave heightAir tempDewpointWater temp
2016-Dec-06 15:01N 72°55' E 028°57'0 0.0
2016-Dec-06 14:01N 72°55' E 028°57'0 0.0
2016-Dec-06 13:01N 72°55' E 028°57'1 0.6
2016-Dec-06 12:01N 72°55' E 028°57'0 0.0
2016-Dec-06 11:01N 72°55' E 028°57'0 0.0
2016-Dec-06 10:01N 72°55' E 028°57'1 0.3
2016-Dec-06 08:01N 72°56' E 028°56'1 0.7
2016-Dec-06 07:01N 72°56' E 028°55'1 0.5
2016-Dec-06 05:01N 72°57' E 028°53'1 0.3
2016-Dec-06 03:01N 72°58' E 028°53'0 0.0
2016-Dec-06 02:01N 72°58' E 028°53'1 0.6
2016-Dec-06 01:01N 72°58' E 028°53'0 0.0
2016-Dec-06 00:01N 72°58' E 028°53'1 0.6
2016-Dec-05 23:01N 72°59' E 028°53'0 0.2
2016-Dec-05 22:01N 72°59' E 028°53'1 0.6
2016-Dec-05 21:01N 72°59' E 028°52'0 0.4
2016-Dec-05 20:01N 72°59' E 028°51'1 1.1
2016-Dec-05 19:01N 73°00' E 028°48'1 0.9
2016-Dec-05 18:01N 73°00' E 028°45'1 0.7
2016-Dec-05 17:01N 73°00' E 028°43'1 0.7
2016-Dec-05 16:01N 73°00' E 028°40'1 0.7
2016-Dec-05 15:01N 72°59' E 028°39'0 0.4
2016-Dec-05 14:01N 72°59' E 028°38'0 0.0
2016-Dec-05 13:01N 72°59' E 028°38'1 0.3
2016-Dec-05 11:01N 72°59' E 028°38'1 0.6
2016-Dec-05 10:01N 72°58' E 028°38'0 0.1
2016-Dec-05 08:01N 72°58' E 028°39'0 0.0
2016-Dec-05 07:01N 72°58' E 028°39'1 0.6
2016-Dec-05 06:01N 72°58' E 028°38'1 0.4
2016-Dec-05 04:01N 72°57' E 028°37'1 0.3
2016-Dec-05 02:01N 72°56' E 028°37'1 0.7
2016-Dec-05 01:01N 72°56' E 028°38'1 0.7
2016-Dec-05 00:01N 72°55' E 028°39'1 0.7
2016-Dec-04 23:01N 72°55' E 028°40'1 0.7
2016-Dec-04 22:01N 72°54' E 028°41'0 0.4
2016-Dec-04 21:01N 72°54' E 028°43'1 0.6
2016-Dec-04 20:01N 72°53' E 028°43'1 0.6
2016-Dec-04 19:01N 72°53' E 028°43'0 0.2
2016-Dec-04 18:01N 72°53' E 028°42'1 0.6
2016-Dec-04 17:01N 72°52' E 028°41'1 0.7
2016-Dec-04 16:01N 72°52' E 028°40'1 0.6
2016-Dec-04 15:01N 72°51' E 028°40'1 0.6
2016-Dec-04 14:01N 72°50' E 028°40'1 0.7
2016-Dec-04 13:01N 72°50' E 028°41'1 0.8
2016-Dec-04 12:01N 72°49' E 028°43'2 1.0
2016-Dec-04 10:01N 72°47' E 028°46'1 0.6
2016-Dec-04 09:01N 72°47' E 028°47'1 0.6
2016-Dec-04 08:01N 72°46' E 028°47'1 0.7
2016-Dec-04 07:01N 72°46' E 028°46'1 0.6
2016-Dec-04 06:01N 72°45' E 028°45'1 0.7
2016-Dec-04 05:01N 72°44' E 028°44'1 0.3
2016-Dec-04 03:01N 72°44' E 028°43'1 0.6
2016-Dec-04 02:01N 72°43' E 028°43'1 0.6
2016-Dec-04 01:01N 72°43' E 028°43'1 0.7
2016-Dec-04 00:01N 72°42' E 028°44'1 0.7
2016-Dec-03 23:01N 72°41' E 028°46'1 0.6
2016-Dec-03 22:01N 72°41' E 028°46'0 0.0
2016-Dec-03 21:01N 72°41' E 028°46'1 0.6
2016-Dec-03 20:01N 72°40' E 028°46'0 0.2
2016-Dec-03 19:01N 72°40' E 028°46'1 0.5
2016-Dec-03 18:01N 72°40' E 028°44'1 0.7
2016-Dec-03 16:01N 72°40' E 028°40'1 0.5
2016-Dec-03 15:01N 72°40' E 028°38'0 0.2
2016-Dec-03 14:01N 72°40' E 028°37'0 0.0
2016-Dec-03 13:01N 72°40' E 028°37'1 0.6
2016-Dec-03 12:01N 72°39' E 028°37'0 0.2
2016-Dec-03 11:01N 72°39' E 028°38'0 0.4
2016-Dec-03 10:01N 72°39' E 028°39'0 0.4
2016-Dec-03 09:01N 72°39' E 028°40'0 0.2
2016-Dec-03 08:01N 72°39' E 028°41'0 0.0
2016-Dec-03 07:01N 72°39' E 028°41'0 0.2
2016-Dec-03 06:01N 72°39' E 028°40'0 0.2
2016-Dec-03 04:01N 72°39' E 028°39'0 0.4
2016-Dec-03 03:01N 72°39' E 028°38'0 0.1
2016-Dec-03 01:01N 72°39' E 028°37'0 0.2
2016-Dec-03 00:01N 72°39' E 028°38'1 0.5
2016-Dec-02 23:01N 72°39' E 028°40'1 0.5
2016-Dec-02 22:01N 72°39' E 028°41'0 0.4
2016-Dec-02 21:01N 72°39' E 028°43'0 0.4
2016-Dec-02 20:01N 72°39' E 028°44'0 0.2
2016-Dec-02 19:01N 72°39' E 028°44'1 0.6
2016-Dec-02 18:01N 72°40' E 028°45'0 0.2
2016-Dec-02 17:01N 72°40' E 028°46'0 0.0
2016-Dec-02 16:01N 72°40' E 028°46'0 0.0
2016-Dec-02 15:01N 72°40' E 028°46'0 0.0
2016-Dec-02 14:01N 72°40' E 028°46'0 0.2
2016-Dec-02 13:01N 72°40' E 028°46'0 0.4
2016-Dec-02 12:01N 72°40' E 028°47'1 0.8
2016-Dec-02 11:01N 72°40' E 028°49'1 0.7
2016-Dec-02 10:01N 72°40' E 028°52'1 0.7
2016-Dec-02 09:01N 72°40' E 028°54'1 0.9
2016-Dec-02 08:01N 72°41' E 028°56'1 0.5
2016-Dec-02 07:01N 72°41' E 028°58'1 0.6
2016-Dec-02 06:01N 72°41' E 028°59'1 0.6
2016-Dec-02 05:01N 72°42' E 028°59'1 0.6
2016-Dec-02 04:01N 72°43' E 028°59'1 0.6
2016-Dec-02 03:01N 72°43' E 028°59'1 0.4
2016-Dec-02 01:01N 72°44' E 029°01'1 0.5
2016-Dec-02 00:01N 72°44' E 029°03'1 0.5
2016-Dec-01 23:01N 72°44' E 029°05'1 0.7
2016-Dec-01 22:01N 72°44' E 029°07'1 0.9
2016-Dec-01 21:01N 72°44' E 029°10'1 0.7
2016-Dec-01 20:01N 72°44' E 029°12'1 0.9
2016-Dec-01 19:01N 72°45' E 029°14'1 0.7
2016-Dec-01 18:01N 72°46' E 029°16'1 0.6
2016-Dec-01 17:01N 72°46' E 029°16'0 0.2
2016-Dec-01 16:01N 72°46' E 029°17'1 0.6
2016-Dec-01 15:01N 72°47' E 029°17'1 0.6
2016-Dec-01 14:01N 72°47' E 029°17'0 0.4
2016-Dec-01 13:01N 72°47' E 029°19'1 0.8
2016-Dec-01 12:01N 72°48' E 029°20'1 0.7
2016-Dec-01 11:01N 72°48' E 029°23'1 0.9
2016-Dec-01 10:01N 72°48' E 029°26'1 1.1
2016-Dec-01 09:01N 72°48' E 029°29'1 1.1
2016-Dec-01 08:01N 72°48' E 029°33'1 1.1
2016-Dec-01 07:01N 72°49' E 029°36'1 0.7
2016-Dec-01 06:01N 72°49' E 029°38'1 0.7
2016-Dec-01 05:01N 72°49' E 029°41'1 0.5
2016-Dec-01 04:01N 72°49' E 029°43'1 0.6
2016-Dec-01 02:01N 72°48' E 029°46'1 0.7
2016-Dec-01 01:01N 72°48' E 029°49'1 1.1
2016-Dec-01 00:01N 72°47' E 029°52'1 1.1
2016-Nov-30 23:01N 72°47' E 029°55'1 1.4
2016-Nov-30 22:01N 72°47' E 029°59'2 1.5
2016-Nov-30 21:01N 72°46' E 030°04'2 1.5
2016-Nov-30 20:01N 72°46' E 030°09'1 1.4
2016-Nov-30 19:01N 72°46' E 030°14'1 1.1
2016-Nov-30 18:01N 72°46' E 030°17'1 1.1
2016-Nov-30 17:01N 72°46' E 030°21'1 0.7
2016-Nov-30 16:01N 72°46' E 030°23'1 0.7
2016-Nov-30 15:01N 72°46' E 030°26'1 0.8
2016-Nov-30 14:01N 72°45' E 030°28'1 0.8
2016-Nov-30 13:01N 72°44' E 030°29'1 0.5
2016-Nov-30 12:01N 72°44' E 030°31'1 0.9
2016-Nov-30 11:01N 72°44' E 030°34'1 1.1
2016-Nov-30 10:01N 72°43' E 030°37'1 0.9
2016-Nov-30 09:01N 72°43' E 030°39'2 0.9
2016-Nov-30 07:01N 72°42' E 030°45'1 0.9
2016-Nov-30 06:01N 72°41' E 030°47'1 0.5
2016-Nov-30 05:01N 72°41' E 030°49'1 0.4
2016-Nov-30 03:01N 72°41' E 030°51'0 0.2
2016-Nov-30 02:01N 72°41' E 030°52'0 0.2
2016-Nov-30 01:01N 72°41' E 030°52'1 0.6
2016-Nov-30 00:01N 72°40' E 030°53'0 0.4
2016-Nov-29 23:01N 72°40' E 030°54'1 0.5
2016-Nov-29 22:01N 72°40' E 030°56'1 0.9
2016-Nov-29 21:01N 72°40' E 030°58'1 0.7
2016-Nov-29 20:01N 72°40' E 031°01'1 0.5
2016-Nov-29 19:01N 72°40' E 031°02'1 0.5
2016-Nov-29 18:01N 72°40' E 031°04'1 0.6
2016-Nov-29 17:01N 72°40' E 031°05'0 0.0
2016-Nov-29 16:01N 72°40' E 031°05'1 0.6
2016-Nov-29 15:01N 72°41' E 031°04'0 0.4
2016-Nov-29 14:01N 72°41' E 031°03'1 0.6
2016-Nov-29 13:01N 72°41' E 031°02'0 0.2
2016-Nov-29 12:01N 72°41' E 031°02'0 0.2
2016-Nov-29 11:01N 72°41' E 031°02'0 0.2
2016-Nov-29 10:01N 72°41' E 031°03'1 0.5
2016-Nov-29 09:01N 72°41' E 031°05'1 0.5
2016-Nov-29 08:01N 72°41' E 031°07'0 0.4
2016-Nov-29 07:01N 72°41' E 031°08'0 0.2
2016-Nov-29 06:01N 72°41' E 031°08'0 0.4
2016-Nov-29 05:01N 72°41' E 031°10'0 0.0
2016-Nov-29 04:01N 72°41' E 031°10'0 0.2
2016-Nov-29 03:01N 72°41' E 031°10'0 0.2
2016-Nov-29 02:01N 72°41' E 031°11'1 0.6
2016-Nov-29 01:01N 72°42' E 031°11'0 0.2
2016-Nov-29 00:01N 72°42' E 031°10'0 0.0
2016-Nov-28 23:01N 72°42' E 031°10'0 0.2
2016-Nov-28 22:01N 72°42' E 031°11'0 0.4
2016-Nov-28 21:01N 72°42' E 031°12'1 0.5
2016-Nov-28 20:01N 72°42' E 031°14'1 0.5
2016-Nov-28 19:01N 72°42' E 031°16'0 0.4
2016-Nov-28 18:01N 72°42' E 031°17'1 0.7
2016-Nov-28 17:01N 72°43' E 031°18'0 0.2
2016-Nov-28 16:01N 72°43' E 031°19'1 0.6
2016-Nov-28 15:01N 72°43' E 031°19'0 0.4
2016-Nov-28 14:01N 72°43' E 031°20'0 0.0
2016-Nov-28 13:01N 72°43' E 031°20'1 0.6
2016-Nov-28 12:01N 72°44' E 031°20'0 0.2
2016-Nov-28 11:01N 72°44' E 031°21'0 0.2
2016-Nov-28 10:01N 72°44' E 031°22'0 0.4
2016-Nov-28 09:01N 72°44' E 031°23'0 0.4
2016-Nov-28 08:01N 72°44' E 031°24'1 0.7
2016-Nov-28 07:01N 72°44' E 031°25'0 0.2
2016-Nov-28 06:01N 72°44' E 031°26'1 0.4
2016-Nov-28 04:01N 72°45' E 031°28'1 0.6
2016-Nov-28 03:01N 72°46' E 031°28'1 0.7
2016-Nov-28 01:01N 72°47' E 031°31'1 0.8
2016-Nov-28 00:01N 72°47' E 031°32'1 0.8
2016-Nov-27 23:01N 72°48' E 031°34'1 0.8
2016-Nov-27 22:01N 72°49' E 031°36'1 0.9
2016-Nov-27 21:01N 72°49' E 031°38'1 0.6
2016-Nov-27 20:01N 72°50' E 031°39'1 0.6
2016-Nov-27 19:01N 72°50' E 031°39'1 0.6
2016-Nov-27 18:01N 72°51' E 031°40'1 0.6
2016-Nov-27 17:01N 72°52' E 031°40'1 0.6
2016-Nov-27 16:01N 72°52' E 031°39'1 0.6
2016-Nov-27 15:01N 72°53' E 031°38'1 1.2
2016-Nov-27 14:01N 72°54' E 031°38'1 0.6
2016-Nov-27 13:01N 72°55' E 031°38'1 0.6
2016-Nov-27 12:01N 72°55' E 031°38'1 0.6
2016-Nov-27 11:01N 72°56' E 031°39'1 0.7
2016-Nov-27 10:01N 72°56' E 031°40'0 0.4
2016-Nov-27 09:01N 72°56' E 031°41'1 0.7
2016-Nov-27 08:01N 72°56' E 031°44'1 0.9
2016-Nov-27 07:01N 72°57' E 031°46'1 0.7
2016-Nov-27 06:01N 72°57' E 031°49'1 0.9
2016-Nov-27 05:01N 72°58' E 031°51'0 0.4
2016-Nov-27 04:01N 72°58' E 031°52'1 0.7
2016-Nov-27 03:01N 72°58' E 031°53'1 0.6
2016-Nov-27 02:01N 72°59' E 031°54'1 0.6
2016-Nov-27 01:01N 72°59' E 031°55'0 0.2
2016-Nov-27 00:01N 72°59' E 031°55'1 0.7
2016-Nov-26 23:01N 73°00' E 031°56'0 0.4
2016-Nov-26 22:01N 73°00' E 031°58'0 0.4
2016-Nov-26 21:01N 73°00' E 031°59'1 0.5
2016-Nov-26 20:01N 73°00' E 032°01'1 0.9
2016-Nov-26 19:01N 73°01' E 032°03'1 0.5
2016-Nov-26 18:01N 73°01' E 032°05'1 0.9
2016-Nov-26 17:01N 73°01' E 032°07'1 0.5
2016-Nov-26 16:01N 73°01' E 032°09'1 0.8
2016-Nov-26 15:01N 73°02' E 032°11'  
Track history (hours):
 
Tides and Currents Weather Stations Pressure Air Temp Water Temp Dewpoint Dewpoint Depression Visibility Wind Speed Wind Dir Waves Ship Positions

Drifting buoy 44845

Last reported at 2016-Dec-06 15:01 UTC. Time now 2016-Dec-06 16:04 UTC.
Position N 72°55' E 028°57'.

Date/timePositionNaut miles runAvg speedWind from/ knotsBaromVisibWave heightAir tempDewpointWater temp
2016-Dec-06 15:01N 72°55' E 028°57'0 0.0
2016-Dec-06 14:01N 72°55' E 028°57'0 0.0
2016-Dec-06 13:01N 72°55' E 028°57'1 0.6
2016-Dec-06 12:01N 72°55' E 028°57'0 0.0
2016-Dec-06 11:01N 72°55' E 028°57'0 0.0
2016-Dec-06 10:01N 72°55' E 028°57'1 0.3
2016-Dec-06 08:01N 72°56' E 028°56'1 0.7
2016-Dec-06 07:01N 72°56' E 028°55'1 0.5
2016-Dec-06 05:01N 72°57' E 028°53'1 0.3
2016-Dec-06 03:01N 72°58' E 028°53'0 0.0
2016-Dec-06 02:01N 72°58' E 028°53'1 0.6
2016-Dec-06 01:01N 72°58' E 028°53'0 0.0
2016-Dec-06 00:01N 72°58' E 028°53'1 0.6
2016-Dec-05 23:01N 72°59' E 028°53'0 0.2
2016-Dec-05 22:01N 72°59' E 028°53'1 0.6
2016-Dec-05 21:01N 72°59' E 028°52'0 0.4
2016-Dec-05 20:01N 72°59' E 028°51'1 1.1
2016-Dec-05 19:01N 73°00' E 028°48'1 0.9
2016-Dec-05 18:01N 73°00' E 028°45'1 0.7
2016-Dec-05 17:01N 73°00' E 028°43'1 0.7
2016-Dec-05 16:01N 73°00' E 028°40'1 0.7
2016-Dec-05 15:01N 72°59' E 028°39'0 0.4
2016-Dec-05 14:01N 72°59' E 028°38'0 0.0
2016-Dec-05 13:01N 72°59' E 028°38'1 0.3
2016-Dec-05 11:01N 72°59' E 028°38'1 0.6
2016-Dec-05 10:01N 72°58' E 028°38'0 0.1
2016-Dec-05 08:01N 72°58' E 028°39'0 0.0
2016-Dec-05 07:01N 72°58' E 028°39'1 0.6
2016-Dec-05 06:01N 72°58' E 028°38'1 0.4
2016-Dec-05 04:01N 72°57' E 028°37'1 0.3
2016-Dec-05 02:01N 72°56' E 028°37'1 0.7
2016-Dec-05 01:01N 72°56' E 028°38'1 0.7
2016-Dec-05 00:01N 72°55' E 028°39'1 0.7
2016-Dec-04 23:01N 72°55' E 028°40'1 0.7
2016-Dec-04 22:01N 72°54' E 028°41'0 0.4
2016-Dec-04 21:01N 72°54' E 028°43'1 0.6
2016-Dec-04 20:01N 72°53' E 028°43'1 0.6
2016-Dec-04 19:01N 72°53' E 028°43'0 0.2
2016-Dec-04 18:01N 72°53' E 028°42'1 0.6
2016-Dec-04 17:01N 72°52' E 028°41'1 0.7
2016-Dec-04 16:01N 72°52' E 028°40'1 0.6
2016-Dec-04 15:01N 72°51' E 028°40'1 0.6
2016-Dec-04 14:01N 72°50' E 028°40'1 0.7
2016-Dec-04 13:01N 72°50' E 028°41'1 0.8
2016-Dec-04 12:01N 72°49' E 028°43'2 1.0
2016-Dec-04 10:01N 72°47' E 028°46'1 0.6
2016-Dec-04 09:01N 72°47' E 028°47'1 0.6
2016-Dec-04 08:01N 72°46' E 028°47'1 0.7
2016-Dec-04 07:01N 72°46' E 028°46'1 0.6
2016-Dec-04 06:01N 72°45' E 028°45'1 0.7
2016-Dec-04 05:01N 72°44' E 028°44'1 0.3
2016-Dec-04 03:01N 72°44' E 028°43'1 0.6
2016-Dec-04 02:01N 72°43' E 028°43'1 0.6
2016-Dec-04 01:01N 72°43' E 028°43'1 0.7
2016-Dec-04 00:01N 72°42' E 028°44'1 0.7
2016-Dec-03 23:01N 72°41' E 028°46'1 0.6
2016-Dec-03 22:01N 72°41' E 028°46'0 0.0
2016-Dec-03 21:01N 72°41' E 028°46'1 0.6
2016-Dec-03 20:01N 72°40' E 028°46'0 0.2
2016-Dec-03 19:01N 72°40' E 028°46'1 0.5
2016-Dec-03 18:01N 72°40' E 028°44'1 0.7
2016-Dec-03 16:01N 72°40' E 028°40'1 0.5
2016-Dec-03 15:01N 72°40' E 028°38'0 0.2
2016-Dec-03 14:01N 72°40' E 028°37'0 0.0
2016-Dec-03 13:01N 72°40' E 028°37'1 0.6
2016-Dec-03 12:01N 72°39' E 028°37'0 0.2
2016-Dec-03 11:01N 72°39' E 028°38'0 0.4
2016-Dec-03 10:01N 72°39' E 028°39'0 0.4
2016-Dec-03 09:01N 72°39' E 028°40'0 0.2
2016-Dec-03 08:01N 72°39' E 028°41'0 0.0
2016-Dec-03 07:01N 72°39' E 028°41'0 0.2
2016-Dec-03 06:01N 72°39' E 028°40'0 0.2
2016-Dec-03 04:01N 72°39' E 028°39'0 0.4
2016-Dec-03 03:01N 72°39' E 028°38'0 0.1
2016-Dec-03 01:01N 72°39' E 028°37'0 0.2
2016-Dec-03 00:01N 72°39' E 028°38'1 0.5
2016-Dec-02 23:01N 72°39' E 028°40'1 0.5
2016-Dec-02 22:01N 72°39' E 028°41'0 0.4
2016-Dec-02 21:01N 72°39' E 028°43'0 0.4
2016-Dec-02 20:01N 72°39' E 028°44'0 0.2
2016-Dec-02 19:01N 72°39' E 028°44'1 0.6
2016-Dec-02 18:01N 72°40' E 028°45'0 0.2
2016-Dec-02 17:01N 72°40' E 028°46'0 0.0
2016-Dec-02 16:01N 72°40' E 028°46'0 0.0
2016-Dec-02 15:01N 72°40' E 028°46'0 0.0
2016-Dec-02 14:01N 72°40' E 028°46'0 0.2
2016-Dec-02 13:01N 72°40' E 028°46'0 0.4
2016-Dec-02 12:01N 72°40' E 028°47'1 0.8
2016-Dec-02 11:01N 72°40' E 028°49'1 0.7
2016-Dec-02 10:01N 72°40' E 028°52'1 0.7
2016-Dec-02 09:01N 72°40' E 028°54'1 0.9
2016-Dec-02 08:01N 72°41' E 028°56'1 0.5
2016-Dec-02 07:01N 72°41' E 028°58'1 0.6
2016-Dec-02 06:01N 72°41' E 028°59'1 0.6
2016-Dec-02 05:01N 72°42' E 028°59'1 0.6
2016-Dec-02 04:01N 72°43' E 028°59'1 0.6
2016-Dec-02 03:01N 72°43' E 028°59'1 0.4
2016-Dec-02 01:01N 72°44' E 029°01'1 0.5
2016-Dec-02 00:01N 72°44' E 029°03'1 0.5
2016-Dec-01 23:01N 72°44' E 029°05'1 0.7
2016-Dec-01 22:01N 72°44' E 029°07'1 0.9
2016-Dec-01 21:01N 72°44' E 029°10'1 0.7
2016-Dec-01 20:01N 72°44' E 029°12'1 0.9
2016-Dec-01 19:01N 72°45' E 029°14'1 0.7
2016-Dec-01 18:01N 72°46' E 029°16'1 0.6
2016-Dec-01 17:01N 72°46' E 029°16'0 0.2
2016-Dec-01 16:01N 72°46' E 029°17'1 0.6
2016-Dec-01 15:01N 72°47' E 029°17'1 0.6
2016-Dec-01 14:01N 72°47' E 029°17'0 0.4
2016-Dec-01 13:01N 72°47' E 029°19'1 0.8
2016-Dec-01 12:01N 72°48' E 029°20'1 0.7
2016-Dec-01 11:01N 72°48' E 029°23'1 0.9
2016-Dec-01 10:01N 72°48' E 029°26'1 1.1
2016-Dec-01 09:01N 72°48' E 029°29'1 1.1
2016-Dec-01 08:01N 72°48' E 029°33'1 1.1
2016-Dec-01 07:01N 72°49' E 029°36'1 0.7
2016-Dec-01 06:01N 72°49' E 029°38'1 0.7
2016-Dec-01 05:01N 72°49' E 029°41'1 0.5
2016-Dec-01 04:01N 72°49' E 029°43'1 0.6
2016-Dec-01 02:01N 72°48' E 029°46'1 0.7
2016-Dec-01 01:01N 72°48' E 029°49'1 1.1
2016-Dec-01 00:01N 72°47' E 029°52'1 1.1
2016-Nov-30 23:01N 72°47' E 029°55'1 1.4
2016-Nov-30 22:01N 72°47' E 029°59'2 1.5
2016-Nov-30 21:01N 72°46' E 030°04'2 1.5
2016-Nov-30 20:01N 72°46' E 030°09'1 1.4
2016-Nov-30 19:01N 72°46' E 030°14'1 1.1
2016-Nov-30 18:01N 72°46' E 030°17'1 1.1
2016-Nov-30 17:01N 72°46' E 030°21'1 0.7
2016-Nov-30 16:01N 72°46' E 030°23'1 0.7
2016-Nov-30 15:01N 72°46' E 030°26'1 0.8
2016-Nov-30 14:01N 72°45' E 030°28'1 0.8
2016-Nov-30 13:01N 72°44' E 030°29'1 0.5
2016-Nov-30 12:01N 72°44' E 030°31'1 0.9
2016-Nov-30 11:01N 72°44' E 030°34'1 1.1
2016-Nov-30 10:01N 72°43' E 030°37'1 0.9
2016-Nov-30 09:01N 72°43' E 030°39'2 0.9
2016-Nov-30 07:01N 72°42' E 030°45'1 0.9
2016-Nov-30 06:01N 72°41' E 030°47'1 0.5
2016-Nov-30 05:01N 72°41' E 030°49'1 0.4
2016-Nov-30 03:01N 72°41' E 030°51'0 0.2
2016-Nov-30 02:01N 72°41' E 030°52'0 0.2
2016-Nov-30 01:01N 72°41' E 030°52'1 0.6
2016-Nov-30 00:01N 72°40' E 030°53'0 0.4
2016-Nov-29 23:01N 72°40' E 030°54'1 0.5
2016-Nov-29 22:01N 72°40' E 030°56'1 0.9
2016-Nov-29 21:01N 72°40' E 030°58'1 0.7
2016-Nov-29 20:01N 72°40' E 031°01'1 0.5
2016-Nov-29 19:01N 72°40' E 031°02'1 0.5
2016-Nov-29 18:01N 72°40' E 031°04'1 0.6
2016-Nov-29 17:01N 72°40' E 031°05'0 0.0
2016-Nov-29 16:01N 72°40' E 031°05'1 0.6
2016-Nov-29 15:01N 72°41' E 031°04'0 0.4
2016-Nov-29 14:01N 72°41' E 031°03'1 0.6
2016-Nov-29 13:01N 72°41' E 031°02'0 0.2
2016-Nov-29 12:01N 72°41' E 031°02'0 0.2
2016-Nov-29 11:01N 72°41' E 031°02'0 0.2
2016-Nov-29 10:01N 72°41' E 031°03'1 0.5
2016-Nov-29 09:01N 72°41' E 031°05'1 0.5
2016-Nov-29 08:01N 72°41' E 031°07'0 0.4
2016-Nov-29 07:01N 72°41' E 031°08'0 0.2
2016-Nov-29 06:01N 72°41' E 031°08'0 0.4
2016-Nov-29 05:01N 72°41' E 031°10'0 0.0
2016-Nov-29 04:01N 72°41' E 031°10'0 0.2
2016-Nov-29 03:01N 72°41' E 031°10'0 0.2
2016-Nov-29 02:01N 72°41' E 031°11'1 0.6
2016-Nov-29 01:01N 72°42' E 031°11'0 0.2
2016-Nov-29 00:01N 72°42' E 031°10'0 0.0
2016-Nov-28 23:01N 72°42' E 031°10'0 0.2
2016-Nov-28 22:01N 72°42' E 031°11'0 0.4
2016-Nov-28 21:01N 72°42' E 031°12'1 0.5
2016-Nov-28 20:01N 72°42' E 031°14'1 0.5
2016-Nov-28 19:01N 72°42' E 031°16'0 0.4
2016-Nov-28 18:01N 72°42' E 031°17'1 0.7
2016-Nov-28 17:01N 72°43' E 031°18'0 0.2
2016-Nov-28 16:01N 72°43' E 031°19'1 0.6
2016-Nov-28 15:01N 72°43' E 031°19'0 0.4
2016-Nov-28 14:01N 72°43' E 031°20'0 0.0
2016-Nov-28 13:01N 72°43' E 031°20'1 0.6
2016-Nov-28 12:01N 72°44' E 031°20'0 0.2
2016-Nov-28 11:01N 72°44' E 031°21'0 0.2
2016-Nov-28 10:01N 72°44' E 031°22'0 0.4
2016-Nov-28 09:01N 72°44' E 031°23'0 0.4
2016-Nov-28 08:01N 72°44' E 031°24'1 0.7
2016-Nov-28 07:01N 72°44' E 031°25'0 0.2
2016-Nov-28 06:01N 72°44' E 031°26'1 0.4
2016-Nov-28 04:01N 72°45' E 031°28'1 0.6
2016-Nov-28 03:01N 72°46' E 031°28'1 0.7
2016-Nov-28 01:01N 72°47' E 031°31'1 0.8
2016-Nov-28 00:01N 72°47' E 031°32'1 0.8
2016-Nov-27 23:01N 72°48' E 031°34'1 0.8
2016-Nov-27 22:01N 72°49' E 031°36'1 0.9
2016-Nov-27 21:01N 72°49' E 031°38'1 0.6
2016-Nov-27 20:01N 72°50' E 031°39'1 0.6
2016-Nov-27 19:01N 72°50' E 031°39'1 0.6
2016-Nov-27 18:01N 72°51' E 031°40'1 0.6
2016-Nov-27 17:01N 72°52' E 031°40'1 0.6
2016-Nov-27 16:01N 72°52' E 031°39'1 0.6
2016-Nov-27 15:01N 72°53' E 031°38'1 1.2
2016-Nov-27 14:01N 72°54' E 031°38'1 0.6
2016-Nov-27 13:01N 72°55' E 031°38'1 0.6
2016-Nov-27 12:01N 72°55' E 031°38'1 0.6
2016-Nov-27 11:01N 72°56' E 031°39'1 0.7
2016-Nov-27 10:01N 72°56' E 031°40'0 0.4
2016-Nov-27 09:01N 72°56' E 031°41'1 0.7
2016-Nov-27 08:01N 72°56' E 031°44'1 0.9
2016-Nov-27 07:01N 72°57' E 031°46'1 0.7
2016-Nov-27 06:01N 72°57' E 031°49'1 0.9
2016-Nov-27 05:01N 72°58' E 031°51'0 0.4
2016-Nov-27 04:01N 72°58' E 031°52'1 0.7
2016-Nov-27 03:01N 72°58' E 031°53'1 0.6
2016-Nov-27 02:01N 72°59' E 031°54'1 0.6
2016-Nov-27 01:01N 72°59' E 031°55'0 0.2
2016-Nov-27 00:01N 72°59' E 031°55'1 0.7
2016-Nov-26 23:01N 73°00' E 031°56'0 0.4
2016-Nov-26 22:01N 73°00' E 031°58'0 0.4
2016-Nov-26 21:01N 73°00' E 031°59'1 0.5
2016-Nov-26 20:01N 73°00' E 032°01'1 0.9
2016-Nov-26 19:01N 73°01' E 032°03'1 0.5
2016-Nov-26 18:01N 73°01' E 032°05'1 0.9
2016-Nov-26 17:01N 73°01' E 032°07'1 0.5
2016-Nov-26 16:01N 73°01' E 032°09'1 0.8
2016-Nov-26 15:01N 73°02' E 032°11'  

Dump ship's entire track history